Time;durP1;ratioP1;P1;durP2;ratioP2;P2;SDS_P1;SDS_P2;PMS_P1;PMS_P2;Temp;Humidity;BMP_temperature;BMP_pressure;BME280_temperature;BME280_humidity;BME280_pressure;Samples;Min_cycle;Max_cycle;Signal;HPM_P1;HPM_P2
2022/09/13 00:01:18;;;;;;;4.40;2.37;;;18.80;99.90;;;;;;5075660;28;20456;-59
2022/09/13 00:03:45;;;;;;;3.70;2.30;;;18.70;99.90;;;;;;5075541;28;20444;-59
2022/09/13 00:06:15;;;;;;;2.70;2.50;;;18.60;99.90;;;;;;5075472;28;20549;-59
2022/09/13 00:08:43;;;;;;;2.67;2.47;;;18.70;99.90;;;;;;5075411;28;20448;-59
2022/09/13 00:11:17;;;;;;;2.40;2.20;;;18.70;99.90;;;;;;5075273;28;20939;-59
2022/09/13 00:13:46;;;;;;;2.40;2.20;;;18.70;99.90;;;;;;5075300;28;20458;-59
2022/09/13 00:16:14;;;;;;;3.10;2.43;;;18.70;99.90;;;;;;5075344;28;20447;-59
2022/09/13 00:18:42;;;;;;;2.30;2.10;;;18.60;99.90;;;;;;5075231;28;20452;-59
2022/09/13 00:21:12;;;;;;;4.10;1.87;;;18.60;99.90;;;;;;5075339;28;20468;-59
2022/09/13 00:23:40;;;;;;;8.03;2.10;;;19.00;99.90;;;;;;5075036;28;20539;-59
2022/09/13 00:26:09;;;;;;;2.83;2.20;;;19.30;99.90;;;;;;5075143;28;20479;-60
2022/09/13 00:28:36;;;;;;;2.20;2.00;;;19.60;99.90;;;;;;5073866;28;20452;-59
2022/09/13 00:31:07;;;;;;;7.17;2.10;;;19.30;99.90;;;;;;5074672;28;20470;-59
2022/09/13 00:33:35;;;;;;;3.30;2.17;;;18.90;99.90;;;;;;5075248;28;20761;-59
2022/09/13 00:36:05;;;;;;;2.50;2.33;;;18.70;99.90;;;;;;5074988;28;20530;-59
2022/09/13 00:38:34;;;;;;;2.80;1.87;;;18.80;99.90;;;;;;5074382;28;20977;-59
2022/09/13 00:41:02;;;;;;;3.83;2.37;;;18.90;99.90;;;;;;5074394;28;20472;-59
2022/09/13 00:43:44;;;;;;;2.20;2.00;;;18.90;99.90;;;;;;5074758;28;20435;-59
2022/09/13 00:46:27;;;;;;;2.67;2.20;;;19.10;99.90;;;;;;5074542;28;20467;-59
2022/09/13 00:48:59;;;;;;;1.97;1.87;;;19.00;99.90;;;;;;5074827;28;20435;-59
2022/09/13 00:51:28;;;;;;;2.40;2.20;;;19.20;99.90;;;;;;5074453;28;20480;-59
2022/09/13 00:53:59;;;;;;;3.07;2.00;;;19.20;99.90;;;;;;5074745;28;20444;-59
2022/09/13 00:56:33;;;;;;;2.50;2.30;;;19.00;99.90;;;;;;5074365;28;20433;-59
2022/09/13 00:59:04;;;;;;;2.00;1.70;;;18.50;99.90;;;;;;5074742;28;20443;-59
2022/09/13 01:01:37;;;;;;;7.03;2.43;;;18.30;99.90;;;;;;5074578;28;20559;-59
2022/09/13 01:04:05;;;;;;;2.70;2.50;;;18.10;99.90;;;;;;5074242;28;20416;-59
2022/09/13 01:06:37;;;;;;;2.60;2.40;;;18.00;99.90;;;;;;5074570;28;20480;-59
2022/09/13 01:09:05;;;;;;;2.33;2.13;;;18.10;99.90;;;;;;5074303;28;20436;-59
2022/09/13 01:11:41;;;;;;;3.23;2.63;;;18.20;99.90;;;;;;5073946;28;20567;-59
2022/09/13 01:14:09;;;;;;;2.97;2.67;;;18.30;99.90;;;;;;5073928;28;20486;-59
2022/09/13 01:16:38;;;;;;;3.13;2.80;;;18.40;99.90;;;;;;5074347;28;20437;-59
2022/09/13 01:19:05;;;;;;;3.33;2.37;;;18.40;99.90;;;;;;5073775;28;21024;-59
2022/09/13 01:22:07;;;;;;;6.33;2.87;;;18.20;99.90;;;;;;5073985;28;20468;-59
2022/09/13 01:25:02;;;;;;;3.97;2.73;;;17.80;99.90;;;;;;5074080;28;20436;-59
2022/09/13 01:27:40;;;;;;;2.50;2.30;;;18.00;99.90;;;;;;5074071;28;20468;-59
2022/09/13 01:30:18;;;;;;;2.90;2.43;;;18.00;99.90;;;;;;5073696;28;20429;-59
2022/09/13 01:33:06;;;;;;;3.23;3.00;;;18.30;99.90;;;;;;5073489;28;20475;-59
2022/09/13 01:35:47;;;;;;;3.43;2.60;;;18.10;99.90;;;;;;5073863;28;20428;-59
2022/09/13 01:38:32;;;;;;;2.73;2.53;;;18.20;99.90;;;;;;5073717;28;20433;-60
2022/09/13 01:41:09;;;;;;;2.73;2.53;;;17.90;99.90;;;;;;5073416;28;20464;-59
2022/09/13 01:43:48;;;;;;;3.00;2.63;;;17.70;99.90;;;;;;5073766;28;20452;-59
2022/09/13 01:46:19;;;;;;;2.73;2.53;;;17.60;99.90;;;;;;5073592;28;20475;-59
2022/09/13 01:48:55;;;;;;;3.40;2.70;;;17.80;99.90;;;;;;5073966;28;20432;-59
2022/09/13 01:51:31;;;;;;;2.57;2.37;;;17.70;99.90;;;;;;5073170;28;20476;-59
2022/09/13 01:54:12;;;;;;;4.63;2.73;;;17.70;99.90;;;;;;5073641;28;20507;-60
2022/09/13 01:56:42;;;;;;;2.37;2.17;;;17.60;99.90;;;;;;5073321;28;20428;-60
2022/09/13 01:59:15;;;;;;;3.27;2.97;;;17.70;99.90;;;;;;5073431;28;20444;-59
2022/09/13 02:01:51;;;;;;;3.10;2.63;;;17.90;99.90;;;;;;5073052;28;20975;-59
2022/09/13 02:04:21;;;;;;;2.70;2.50;;;18.10;99.90;;;;;;5073353;28;20443;-59
2022/09/13 02:06:54;;;;;;;2.83;2.63;;;18.20;99.90;;;;;;5073395;28;20985;-59
2022/09/13 02:09:24;;;;;;;3.03;2.67;;;17.70;99.90;;;;;;5073026;28;20459;-60
2022/09/13 02:11:59;;;;;;;2.40;2.20;;;17.50;99.90;;;;;;5073338;28;20476;-59
2022/09/13 02:14:32;;;;;;;2.70;2.50;;;17.40;99.90;;;;;;5073141;28;20436;-60
2022/09/13 02:17:04;;;;;;;3.43;2.83;;;17.60;99.90;;;;;;5073478;28;20429;-59
2022/09/13 02:19:36;;;;;;;3.40;2.77;;;17.80;99.90;;;;;;5073227;28;20428;-59
2022/09/13 02:22:07;;;;;;;2.60;2.40;;;18.00;99.90;;;;;;5073216;28;20464;-59
2022/09/13 02:24:37;;;;;;;2.77;2.57;;;17.70;99.90;;;;;;5072964;28;20441;-60
2022/09/13 02:27:10;;;;;;;2.80;2.57;;;17.60;99.90;;;;;;5072948;28;20480;-59
2022/09/13 02:29:40;;;;;;;2.70;2.50;;;17.50;99.90;;;;;;5072886;28;20511;-60
2022/09/13 02:32:14;;;;;;;2.80;2.60;;;17.60;99.90;;;;;;5073131;28;20468;-59
2022/09/13 02:34:45;;;;;;;3.77;2.67;;;17.80;99.90;;;;;;5072787;28;20425;-59
2022/09/13 02:37:13;;;;;;;7.67;3.03;;;17.80;99.90;;;;;;5073268;28;20512;-59
2022/09/13 02:39:44;;;;;;;3.00;2.80;;;17.80;99.90;;;;;;5073021;28;20444;-59
2022/09/13 02:42:18;;;;;;;3.10;2.80;;;17.80;99.90;;;;;;5072889;28;20976;-59
2022/09/13 02:44:49;;;;;;;2.60;2.40;;;17.80;99.90;;;;;;5073035;28;20776;-59
2022/09/13 02:47:34;;;;;;;3.20;2.90;;;17.80;99.90;;;;;;5072854;28;20487;-59
2022/09/13 02:50:11;;;;;;;4.77;2.60;;;17.90;99.90;;;;;;5072853;28;20484;-59
2022/09/13 02:52:48;;;;;;;3.27;2.43;;;18.10;99.90;;;;;;5074283;28;20469;-59
2022/09/13 02:55:20;;;;;;;3.00;2.80;;;18.20;99.90;;;;;;5076956;28;20420;-59
2022/09/13 02:57:55;;;;;;;2.80;2.60;;;18.40;99.90;;;;;;5076930;28;20427;-59
2022/09/13 03:00:23;;;;;;;3.47;3.17;;;18.30;99.90;;;;;;5076461;28;20998;-59
2022/09/13 03:02:54;;;;;;;3.50;2.63;;;18.20;99.90;;;;;;5076520;28;20984;-59
2022/09/13 03:05:22;;;;;;;2.97;2.67;;;18.00;99.90;;;;;;5076507;28;20413;-59
2022/09/13 03:07:50;;;;;;;3.43;2.63;;;17.70;99.90;;;;;;5076459;28;20491;-59
2022/09/13 03:10:18;;;;;;;3.20;2.90;;;17.70;99.90;;;;;;5076745;28;20474;-59
2022/09/13 03:13:13;;;;;;;3.90;3.50;;;17.80;99.90;;;;;;5076621;28;20541;-59
2022/09/13 03:15:53;;;;;;;3.47;3.03;;;17.70;99.90;;;;;;5076627;28;20498;-59
2022/09/13 03:18:39;;;;;;;3.47;2.70;;;18.10;99.90;;;;;;5076603;28;20420;-59
2022/09/13 03:21:14;;;;;;;2.87;2.50;;;18.20;99.90;;;;;;5076214;28;20468;-59
2022/09/13 03:23:51;;;;;;;3.30;2.50;;;18.00;99.90;;;;;;5076018;28;20432;-60
2022/09/13 03:26:26;;;;;;;5.10;3.03;;;17.80;99.90;;;;;;5076040;28;20783;-59
2022/09/13 03:29:09;;;;;;;4.53;3.67;;;17.90;99.90;;;;;;5075937;28;20898;-59
2022/09/13 03:31:43;;;;;;;3.40;3.10;;;18.10;99.90;;;;;;5076286;28;20464;-59
2022/09/13 03:34:19;;;;;;;3.60;3.00;;;18.00;99.90;;;;;;5075950;28;20795;-59
2022/09/13 03:36:52;;;;;;;3.60;2.70;;;18.00;99.90;;;;;;5076057;28;20515;-59
2022/09/13 03:39:28;;;;;;;4.10;2.70;;;18.10;99.90;;;;;;5075741;28;20425;-59
2022/09/13 03:42:01;;;;;;;3.20;2.90;;;18.00;99.90;;;;;;5075834;28;20477;-59
2022/09/13 03:44:29;;;;;;;2.60;2.40;;;17.60;99.90;;;;;;5076150;28;20433;-59
2022/09/13 03:47:00;;;;;;;2.77;2.57;;;17.30;99.90;;;;;;5075984;28;20484;-59
2022/09/13 03:49:29;;;;;;;5.70;3.53;;;17.20;99.90;;;;;;5075513;28;20447;-59
2022/09/13 03:51:58;;;;;;;3.23;2.90;;;17.20;99.90;;;;;;5075283;28;20845;-59
2022/09/13 03:54:28;;;;;;;3.07;2.70;;;17.40;99.90;;;;;;5075481;28;20451;-59
2022/09/13 03:57:14;;;;;;;3.87;3.10;;;17.50;99.90;;;;;;5075596;28;20424;-59
2022/09/13 03:59:45;;;;;;;5.97;2.80;;;17.80;99.90;;;;;;5075543;28;20833;-59
2022/09/13 04:02:13;;;;;;;3.10;2.50;;;18.20;99.90;;;;;;5075572;28;20464;-59
2022/09/13 04:04:43;;;;;;;3.10;2.80;;;18.40;99.90;;;;;;5075330;28;20931;-59
2022/09/13 04:07:13;;;;;;;5.10;3.00;;;17.90;99.90;;;;;;5075595;28;20545;-59
2022/09/13 04:09:40;;;;;;;3.07;2.77;;;17.60;99.90;;;;;;5075334;28;20433;-59
2022/09/13 04:12:08;;;;;;;3.20;2.90;;;17.30;99.90;;;;;;5075271;28;20476;-59
2022/09/13 04:14:35;;;;;;;3.77;2.90;;;17.30;99.90;;;;;;5075356;28;20521;-59
2022/09/13 04:17:03;;;;;;;3.40;3.20;;;17.50;99.90;;;;;;5075475;28;20478;-59
2022/09/13 04:19:30;;;;;;;3.20;2.70;;;17.40;99.90;;;;;;5075192;28;20499;-59
2022/09/13 04:21:59;;;;;;;3.47;3.17;;;17.40;99.90;;;;;;5075281;28;20504;-59
2022/09/13 04:24:28;;;;;;;3.50;3.10;;;17.30;99.90;;;;;;5075364;28;20470;-59
2022/09/13 04:26:56;;;;;;;5.70;3.13;;;17.40;99.90;;;;;;5074714;28;20472;-59
2022/09/13 04:29:25;;;;;;;3.27;2.97;;;17.50;99.90;;;;;;5075124;28;20457;-59
2022/09/13 04:31:53;;;;;;;3.43;3.03;;;17.50;99.90;;;;;;5075102;28;20472;-59
2022/09/13 04:34:22;;;;;;;7.20;3.60;;;17.30;99.90;;;;;;5075000;28;20450;-59
2022/09/13 04:36:51;;;;;;;4.10;2.73;;;17.00;99.90;;;;;;5074708;28;20527;-59
2022/09/13 04:39:20;;;;;;;3.20;2.90;;;16.80;99.90;;;;;;5074922;28;20445;-59
2022/09/13 04:41:48;;;;;;;5.10;3.20;;;17.10;99.90;;;;;;5074947;28;20589;-59
2022/09/13 04:44:17;;;;;;;3.43;3.13;;;17.40;99.90;;;;;;5074464;28;20495;-59
2022/09/13 04:46:47;;;;;;;7.63;3.10;;;17.40;99.90;;;;;;5074628;28;20445;-59
2022/09/13 04:49:15;;;;;;;3.33;3.07;;;17.40;99.90;;;;;;5074840;28;20515;-59
2022/09/13 04:51:42;;;;;;;3.40;2.97;;;17.30;99.90;;;;;;5074123;28;20812;-59
2022/09/13 04:54:10;;;;;;;5.73;3.53;;;17.10;99.90;;;;;;5074143;28;21013;-59
2022/09/13 04:56:39;;;;;;;6.93;3.63;;;16.90;99.90;;;;;;5074469;28;20444;-60
2022/09/13 04:59:06;;;;;;;4.57;3.53;;;16.90;99.90;;;;;;5074129;28;21026;-59
2022/09/13 05:01:34;;;;;;;3.83;3.47;;;17.00;99.90;;;;;;5074001;28;20496;-59
2022/09/13 05:04:01;;;;;;;3.60;3.30;;;17.10;99.90;;;;;;5074454;28;20444;-60
2022/09/13 05:06:29;;;;;;;5.20;3.27;;;17.10;99.90;;;;;;5074565;28;20487;-59
2022/09/13 05:08:57;;;;;;;4.70;2.77;;;17.00;99.90;;;;;;5073914;28;20571;-60
2022/09/13 05:11:25;;;;;;;2.97;2.67;;;17.10;99.90;;;;;;5073831;28;20482;-60
2022/09/13 05:13:55;;;;;;;4.00;3.40;;;17.00;99.90;;;;;;5074218;28;20488;-60
2022/09/13 05:16:24;;;;;;;3.90;3.50;;;16.90;99.90;;;;;;5073887;28;20441;-60
2022/09/13 05:18:52;;;;;;;3.93;3.50;;;16.80;99.90;;;;;;5073637;28;20451;-60
2022/09/13 05:21:20;;;;;;;3.70;3.40;;;16.80;99.90;;;;;;5073873;28;20460;-59
2022/09/13 05:23:49;;;;;;;3.97;3.57;;;17.10;99.90;;;;;;5073534;28;20452;-59
2022/09/13 05:26:16;;;;;;;5.60;3.53;;;17.00;99.90;;;;;;5073672;28;20452;-60
2022/09/13 05:28:44;;;;;;;5.40;3.30;;;17.10;99.90;;;;;;5073789;28;20763;-59
2022/09/13 05:31:16;;;;;;;4.57;3.93;;;17.00;99.90;;;;;;5073664;28;20464;-60
2022/09/13 05:33:43;;;;;;;3.73;3.30;;;17.00;99.90;;;;;;5073616;28;20436;-59
2022/09/13 05:36:11;;;;;;;3.50;3.20;;;16.90;99.90;;;;;;5073689;28;20455;-60
2022/09/13 05:38:38;;;;;;;3.80;3.23;;;16.80;99.90;;;;;;5073637;28;20539;-60
2022/09/13 05:41:06;;;;;;;5.90;3.70;;;16.80;99.90;;;;;;5073270;28;20471;-59
2022/09/13 05:43:35;;;;;;;3.97;3.67;;;16.80;99.90;;;;;;5073287;28;20934;-60
2022/09/13 05:46:04;;;;;;;4.10;3.60;;;16.90;99.90;;;;;;5072965;28;20480;-60
2022/09/13 05:48:35;;;;;;;8.17;4.50;;;16.90;99.90;;;;;;5073379;28;20480;-60
2022/09/13 05:51:07;;;;;;;5.63;3.80;;;17.00;99.90;;;;;;5072904;28;20484;-59
2022/09/13 05:53:35;;;;;;;5.17;4.00;;;17.10;99.90;;;;;;5073337;28;20535;-59
2022/09/13 05:56:03;;;;;;;4.70;3.63;;;17.10;99.90;;;;;;5073610;28;20460;-60
2022/09/13 05:58:30;;;;;;;4.20;3.80;;;17.20;99.90;;;;;;5073202;28;20472;-60
2022/09/13 06:00:58;;;;;;;4.17;3.67;;;17.20;99.90;;;;;;5073149;28;20475;-60
2022/09/13 06:03:25;;;;;;;7.37;4.17;;;17.20;99.90;;;;;;5073462;28;20476;-60
2022/09/13 06:05:57;;;;;;;7.97;3.80;;;17.20;99.90;;;;;;5072974;28;20452;-60
2022/09/13 06:08:25;;;;;;;10.60;3.97;;;17.00;99.90;;;;;;5072859;28;20468;-60
2022/09/13 06:10:57;;;;;;;3.70;3.40;;;17.10;99.90;;;;;;5072766;28;21066;-59
2022/09/13 06:13:24;;;;;;;5.43;4.93;;;17.20;99.90;;;;;;5072916;28;20433;-60
2022/09/13 06:15:52;;;;;;;6.20;4.07;;;17.30;99.90;;;;;;5072836;28;20813;-60
2022/09/13 06:18:20;;;;;;;7.53;4.90;;;17.60;99.90;;;;;;5072842;28;20444;-59
2022/09/13 06:20:47;;;;;;;4.80;4.40;;;17.60;99.90;;;;;;5072826;28;20444;-60
2022/09/13 06:23:16;;;;;;;6.93;4.80;;;17.60;99.90;;;;;;5072845;28;20949;-61
2022/09/13 06:25:44;;;;;;;6.13;4.43;;;17.50;99.90;;;;;;5072540;28;20453;-59
2022/09/13 06:28:11;;;;;;;5.10;4.53;;;17.50;99.90;;;;;;5071633;28;21013;-60
2022/09/13 06:30:38;;;;;;;4.53;4.13;;;17.40;99.90;;;;;;5072401;28;20440;-60
2022/09/13 06:33:05;;;;;;;4.70;4.20;;;17.50;99.90;;;;;;5072423;28;20539;-60
2022/09/13 06:35:32;;;;;;;4.83;3.80;;;17.30;99.90;;;;;;5072449;28;20540;-60
2022/09/13 06:38:00;;;;;;;8.27;4.97;;;17.30;99.90;;;;;;5072900;28;20448;-60
2022/09/13 06:40:28;;;;;;;8.90;5.10;;;17.60;99.90;;;;;;5072859;28;20767;-59
2022/09/13 06:42:55;;;;;;;8.93;5.43;;;17.70;99.90;;;;;;5073030;28;20475;-59
2022/09/13 06:45:22;;;;;;;7.33;5.00;;;17.60;99.90;;;;;;5072052;28;20445;-60
2022/09/13 06:47:49;;;;;;;9.53;5.07;;;17.50;99.90;;;;;;5072796;28;20490;-59
2022/09/13 06:50:17;;;;;;;8.37;5.17;;;17.50;99.90;;;;;;5072235;28;20478;-59
2022/09/13 06:52:44;;;;;;;8.80;4.90;;;17.40;99.90;;;;;;5072137;28;20548;-59
2022/09/13 06:55:11;;;;;;;15.67;6.17;;;17.50;99.90;;;;;;5072323;28;20961;-60
2022/09/13 06:57:40;;;;;;;9.00;5.23;;;17.60;99.90;;;;;;5072427;28;20432;-59
2022/09/13 07:00:08;;;;;;;6.20;4.67;;;17.50;99.90;;;;;;5072349;28;20491;-59
2022/09/13 07:02:35;;;;;;;7.20;4.87;;;17.50;99.90;;;;;;5072255;28;20472;-59
2022/09/13 07:05:02;;;;;;;6.80;5.03;;;17.60;99.90;;;;;;5072606;28;20471;-59
2022/09/13 07:07:30;;;;;;;6.30;5.10;;;17.70;99.90;;;;;;5072327;28;20448;-60
2022/09/13 07:09:59;;;;;;;7.47;5.83;;;17.70;99.90;;;;;;5072456;28;20531;-60
2022/09/13 07:12:26;;;;;;;7.90;4.60;;;17.70;99.90;;;;;;5072427;28;20475;-60
2022/09/13 07:14:55;;;;;;;6.13;4.93;;;17.70;99.90;;;;;;5072556;28;20840;-59
2022/09/13 07:17:22;;;;;;;7.83;4.67;;;17.90;99.90;;;;;;5072706;28;20451;-59
2022/09/13 07:19:49;;;;;;;5.27;4.77;;;18.00;99.90;;;;;;5072642;28;20452;-59
2022/09/13 07:22:16;;;;;;;6.10;4.37;;;18.20;99.90;;;;;;5072592;28;20464;-60
2022/09/13 07:24:44;;;;;;;6.33;5.40;;;18.60;99.90;;;;;;5072373;28;20455;-60
2022/09/13 07:27:13;;;;;;;7.53;5.00;;;18.70;99.90;;;;;;5072332;28;20486;-60
2022/09/13 07:29:40;;;;;;;6.10;4.67;;;18.60;99.90;;;;;;5072193;28;20487;-60
2022/09/13 07:32:09;;;;;;;13.53;5.50;;;18.60;99.90;;;;;;5072092;28;20479;-63
2022/09/13 07:34:36;;;;;;;7.83;4.97;;;18.40;99.90;;;;;;5072170;28;20431;-59
2022/09/13 07:37:03;;;;;;;7.13;5.03;;;18.60;99.90;;;;;;5072110;28;20961;-59
2022/09/13 07:39:30;;;;;;;6.53;5.40;;;18.90;99.90;;;;;;5074441;28;20483;-59
2022/09/13 07:41:58;;;;;;;5.50;4.60;;;18.90;99.90;;;;;;5075493;28;20993;-59
2022/09/13 07:44:25;;;;;;;6.80;5.10;;;18.90;99.90;;;;;;5075594;28;20441;-59
2022/09/13 07:46:52;;;;;;;5.57;4.47;;;18.80;99.90;;;;;;5075607;28;20456;-59
2022/09/13 07:49:21;;;;;;;5.40;4.47;;;18.80;99.90;;;;;;5075681;28;20480;-59
2022/09/13 07:51:50;;;;;;;9.27;4.17;;;18.90;99.90;;;;;;5075118;28;20570;-59
2022/09/13 07:54:18;;;;;;;6.13;4.50;;;19.00;99.90;;;;;;5075288;28;20452;-59
2022/09/13 07:56:45;;;;;;;11.13;4.07;;;19.10;99.90;;;;;;5075327;28;20453;-59
2022/09/13 07:59:15;;;;;;;8.57;5.57;;;19.30;99.90;;;;;;5075449;28;20547;-59
2022/09/13 08:01:43;;;;;;;5.07;4.47;;;19.70;99.90;;;;;;5075403;28;20496;-59
2022/09/13 08:04:12;;;;;;;5.23;4.70;;;20.00;99.90;;;;;;5075035;28;20456;-59
2022/09/13 08:06:42;;;;;;;4.70;4.00;;;20.10;99.90;;;;;;5075292;28;20452;-59
2022/09/13 08:09:10;;;;;;;4.67;4.07;;;20.10;99.90;;;;;;5075027;28;20476;-59
2022/09/13 08:11:39;;;;;;;7.63;3.67;;;20.20;99.90;;;;;;5075068;28;20558;-59
2022/09/13 08:14:09;;;;;;;4.53;3.37;;;20.60;99.90;;;;;;5075086;28;20452;-59
2022/09/13 08:16:36;;;;;;;4.10;3.50;;;20.90;99.90;;;;;;5074883;28;20445;-59
2022/09/13 08:19:05;;;;;;;6.10;4.30;;;21.00;99.90;;;;;;5074731;28;20806;-59
2022/09/13 08:21:34;;;;;;;4.60;3.77;;;21.00;99.90;;;;;;5074509;28;20464;-60
2022/09/13 08:24:03;;;;;;;5.93;4.27;;;21.00;99.90;;;;;;5074827;28;20448;-60
2022/09/13 08:26:31;;;;;;;6.27;4.40;;;21.00;99.90;;;;;;5074902;28;20547;-60
2022/09/13 08:29:00;;;;;;;7.27;4.07;;;20.80;99.90;;;;;;5074409;28;20477;-60
2022/09/13 08:31:28;;;;;;;6.20;3.67;;;21.00;99.90;;;;;;5074850;28;20484;-59
2022/09/13 08:33:56;;;;;;;4.50;4.10;;;21.00;99.90;;;;;;5074959;28;20456;-60
2022/09/13 08:36:24;;;;;;;5.80;4.20;;;21.00;99.90;;;;;;5074844;28;20494;-60
2022/09/13 08:38:53;;;;;;;10.80;4.50;;;20.90;99.90;;;;;;5074752;28;20762;-60
2022/09/13 08:41:51;;;;;;;6.13;4.10;;;21.00;99.90;;;;;;5074661;28;20472;-60
2022/09/13 08:44:25;;;;;;;4.43;3.90;;;21.20;99.90;;;;;;5074058;28;20453;-60
2022/09/13 08:46:55;;;;;;;5.97;3.70;;;21.40;99.90;;;;;;5074562;28;20429;-60
2022/09/13 08:49:26;;;;;;;3.83;3.50;;;21.50;99.90;;;;;;5074136;28;20561;-60
2022/09/13 08:51:56;;;;;;;8.20;3.80;;;21.80;99.90;;;;;;5073752;28;20480;-60
2022/09/13 08:54:23;;;;;;;6.03;3.73;;;22.00;99.90;;;;;;5074256;28;20448;-60
2022/09/13 08:56:59;;;;;;;6.10;3.90;;;22.20;99.90;;;;;;5074490;28;20479;-60
2022/09/13 08:59:46;;;;;;;3.80;3.50;;;22.40;99.90;;;;;;5074223;28;20855;-60
2022/09/13 09:02:26;;;;;;;5.67;3.77;;;22.60;99.90;;;;;;5074194;28;20468;-60
2022/09/13 09:05:04;;;;;;;7.33;3.90;;;22.80;99.90;;;;;;5074178;28;20536;-60
2022/09/13 09:07:36;;;;;;;5.20;3.83;;;23.10;99.90;;;;;;5072999;28;20906;-60
2022/09/13 09:10:07;;;;;;;5.53;3.53;;;23.30;99.90;;;;;;5073324;28;21190;-60
2022/09/13 09:12:42;;;;;;;7.87;3.60;;;23.70;99.90;;;;;;5073410;28;21020;-60
2022/09/13 09:15:16;;;;;;;3.57;3.27;;;24.50;99.90;;;;;;5073323;28;20424;-60
2022/09/13 09:17:54;;;;;;;5.17;3.23;;;24.80;99.90;;;;;;5073726;28;20429;-60
2022/09/13 09:20:26;;;;;;;5.83;3.37;;;25.00;99.90;;;;;;5073253;28;20429;-60
2022/09/13 09:22:55;;;;;;;5.00;3.50;;;25.20;99.90;;;;;;5073536;28;20469;-60
2022/09/13 09:25:25;;;;;;;4.63;3.00;;;25.60;99.90;;;;;;5073309;28;20451;-61
2022/09/13 09:27:54;;;;;;;5.37;4.00;;;25.80;99.90;;;;;;5073537;28;20444;-60
2022/09/13 09:30:21;;;;;;;6.53;3.70;;;26.00;99.90;;;;;;5073349;28;20548;-60
2022/09/13 09:33:09;;;;;;;5.03;3.40;;;26.40;99.90;;;;;;5073321;28;20468;-60
2022/09/13 09:35:51;;;;;;;5.53;4.00;;;26.80;99.90;;;;;;5072832;28;20519;-60
2022/09/13 09:38:36;;;;;;;6.57;3.50;;;26.80;99.90;;;;;;5073150;28;20424;-60
2022/09/13 09:41:10;;;;;;;5.07;3.80;;;26.70;99.90;;;;;;5072863;28;20526;-60
2022/09/13 09:43:46;;;;;;;7.50;4.00;;;26.60;99.90;;;;;;5073328;28;20463;-60
2022/09/13 09:46:16;;;;;;;4.60;4.20;;;26.60;99.90;;;;;;5072974;28;20424;-60
2022/09/13 09:48:48;;;;;;;7.13;3.50;;;26.40;99.90;;;;;;5072811;28;20519;-59
2022/09/13 09:51:18;;;;;;;4.47;3.37;;;26.70;99.90;;;;;;5071598;28;20479;-60
2022/09/13 09:53:49;;;;;;;6.10;3.20;;;26.70;99.90;;;;;;5072701;28;20514;-60
2022/09/13 09:56:23;;;;;;;6.87;3.80;;;26.60;99.90;;;;;;5073274;28;20429;-60
2022/09/13 09:58:55;;;;;;;3.33;3.03;;;26.90;99.70;;;;;;5072845;28;20512;-60
2022/09/13 10:01:25;;;;;;;8.20;4.00;;;26.60;99.80;;;;;;5072297;28;20475;-60
2022/09/13 10:04:03;;;;;;;6.57;3.47;;;26.60;99.90;;;;;;5072629;28;20509;-60
2022/09/13 10:06:30;;;;;;;6.80;3.57;;;27.10;98.80;;;;;;5072556;28;20920;-60
2022/09/13 10:09:01;;;;;;;3.77;3.17;;;27.40;98.80;;;;;;5072470;28;20484;-60
2022/09/13 10:11:46;;;;;;;4.93;3.57;;;27.20;98.30;;;;;;5072302;28;20499;-60
2022/09/13 10:14:35;;;;;;;9.10;3.87;;;27.40;97.80;;;;;;5071951;28;20429;-60
2022/09/13 10:17:05;;;;;;;4.60;3.07;;;27.90;97.50;;;;;;5072600;28;20428;-60
2022/09/13 10:19:33;;;;;;;4.70;2.70;;;28.40;97.20;;;;;;5072545;28;20440;-60
2022/09/13 10:22:02;;;;;;;5.23;3.07;;;28.10;94.80;;;;;;5072325;28;20472;-60
2022/09/13 10:24:30;;;;;;;4.83;3.07;;;28.80;95.20;;;;;;5072123;28;20444;-60
2022/09/13 10:26:58;;;;;;;3.70;3.00;;;29.20;94.20;;;;;;5072707;28;20486;-60
2022/09/13 10:29:27;;;;;;;5.03;3.50;;;29.40;94.20;;;;;;5072749;28;20878;-60
2022/09/13 10:31:57;;;;;;;3.20;2.87;;;30.00;94.50;;;;;;5072727;28;20523;-60
2022/09/13 10:34:27;;;;;;;4.03;2.87;;;30.40;92.40;;;;;;5072609;28;20786;-60
2022/09/13 10:36:58;;;;;;;3.80;2.43;;;31.00;91.30;;;;;;5072261;28;20841;-59
2022/09/13 10:39:28;;;;;;;4.97;3.00;;;31.20;90.40;;;;;;5072792;28;20463;-60
2022/09/13 10:41:59;;;;;;;2.77;2.13;;;31.50;86.80;;;;;;5072597;28;20827;-60
2022/09/13 10:44:32;;;;;;;3.10;2.00;;;31.80;86.50;;;;;;5072879;28;20760;-60
2022/09/13 10:47:03;;;;;;;5.10;2.10;;;31.80;77.60;;;;;;5072763;28;20429;-60
2022/09/13 10:49:40;;;;;;;4.13;2.40;;;31.80;80.20;;;;;;5072859;28;20472;-60
2022/09/13 10:52:29;;;;;;;2.77;2.57;;;31.50;78.90;;;;;;5072374;28;21013;-60
2022/09/13 10:55:21;;;;;;;3.57;2.10;;;31.40;79.50;;;;;;5047783;28;21004;-59
2022/09/13 10:57:49;;;;;;;4.67;2.50;;;31.30;78.10;;;;;;5072301;28;20433;-59
2022/09/13 11:00:19;;;;;;;5.23;2.13;;;31.40;78.00;;;;;;5072334;28;20439;-60
2022/09/13 11:03:13;;;;;;;2.57;2.37;;;31.80;78.60;;;;;;5072276;28;20867;-60
2022/09/13 11:05:44;;;;;;;3.63;2.53;;;31.80;76.50;;;;;;5072407;28;20909;-60
2022/09/13 11:08:31;;;;;;;3.03;2.40;;;32.10;77.70;;;;;;5072675;28;20797;-60
2022/09/13 11:11:08;;;;;;;2.47;2.17;;;31.80;76.80;;;;;;5072365;28;20452;-60
2022/09/13 11:13:51;;;;;;;4.60;2.27;;;31.10;77.50;;;;;;5073997;28;20432;-60
2022/09/13 11:16:40;;;;;;;3.33;2.50;;;29.80;80.30;;;;;;5076118;28;20520;-60
2022/09/13 11:19:24;;;;;;;5.07;2.00;;;29.10;81.80;;;;;;5076136;28;20483;-60
2022/09/13 11:22:03;;;;;;;3.03;2.30;;;28.80;81.80;;;;;;5076053;28;20495;-60
2022/09/13 11:24:55;;;;;;;2.63;2.17;;;29.50;81.60;;;;;;5075945;28;20799;-60
2022/09/13 11:27:32;;;;;;;2.63;2.17;;;29.60;80.90;;;;;;5075934;28;20815;-60
2022/09/13 11:30:12;;;;;;;5.93;2.60;;;29.20;79.80;;;;;;5075859;28;20468;-60
2022/09/13 11:33:14;;;;;;;12.30;2.53;;;29.60;81.40;;;;;;5076249;28;20565;-60
2022/09/13 11:35:54;;;;;;;5.27;2.50;;;30.10;79.60;;;;;;5064883;28;20804;-60
2022/09/13 11:38:36;;;;;;;2.67;2.47;;;30.30;81.80;;;;;;5075724;28;20458;-60
2022/09/13 11:41:13;;;;;;;3.47;2.53;;;29.80;80.00;;;;;;5075377;28;20526;-60
2022/09/13 11:43:53;;;;;;;3.03;2.50;;;29.50;79.30;;;;;;5076046;28;20512;-60
2022/09/13 11:46:29;;;;;;;3.10;2.20;;;29.30;79.70;;;;;;5076021;28;20516;-60
2022/09/13 11:49:27;;;;;;;3.50;2.23;;;29.10;79.00;;;;;;5075831;28;20416;-60
2022/09/13 11:52:07;;;;;;;3.40;2.17;;;29.10;79.80;;;;;;5075456;28;20567;-57
2022/09/13 11:54:52;;;;;;;2.87;2.10;;;29.00;77.90;;;;;;5075870;28;20435;-60
2022/09/13 11:57:25;;;;;;;2.83;2.00;;;28.90;76.80;;;;;;5075622;28;20433;-58
2022/09/13 11:59:55;;;;;;;2.80;2.00;;;28.90;77.90;;;;;;5075414;28;20910;-59
2022/09/13 12:02:28;;;;;;;2.20;1.93;;;29.00;75.90;;;;;;5075560;28;20484;-59
2022/09/13 12:05:01;;;;;;;2.03;1.87;;;29.30;76.10;;;;;;5075425;28;20425;-59
2022/09/13 12:07:38;;;;;;;5.10;2.20;;;29.20;76.50;;;;;;5075385;28;20436;-59
2022/09/13 12:10:15;;;;;;;2.03;1.83;;;29.40;74.80;;;;;;5075727;28;20464;-58
2022/09/13 12:12:44;;;;;;;2.30;2.10;;;29.20;76.90;;;;;;5075695;28;20472;-59
2022/09/13 12:15:17;;;;;;;2.10;2.00;;;29.60;74.80;;;;;;5075024;28;20454;-59
2022/09/13 12:17:48;;;;;;;9.53;2.13;;;29.70;72.70;;;;;;5074995;28;20439;-59
2022/09/13 12:20:24;;;;;;;1.90;1.80;;;29.90;71.60;;;;;;5075336;28;20471;-59
2022/09/13 12:22:55;;;;;;;2.30;1.87;;;30.30;70.30;;;;;;5074912;28;20496;-59
2022/09/13 12:25:25;;;;;;;1.80;1.70;;;30.50;69.90;;;;;;5073751;28;20486;-60
2022/09/13 12:27:59;;;;;;;6.20;1.90;;;30.70;70.10;;;;;;5075146;28;20468;-60
2022/09/13 12:30:33;;;;;;;1.77;1.67;;;31.10;69.90;;;;;;5075118;28;20822;-59
2022/09/13 12:33:00;;;;;;;3.27;2.37;;;30.50;67.60;;;;;;5075248;28;20427;-60
2022/09/13 12:35:32;;;;;;;2.50;1.83;;;29.80;69.90;;;;;;5074848;28;20456;-59
2022/09/13 12:38:16;;;;;;;2.67;1.80;;;29.30;71.20;;;;;;5074986;28;20466;-59
2022/09/13 12:41:04;;;;;;;2.87;2.10;;;29.50;71.40;;;;;;5074582;28;20773;-59
2022/09/13 12:44:04;;;;;;;4.03;2.17;;;29.40;70.30;;;;;;5074421;28;20459;-59
2022/09/13 12:46:43;;;;;;;2.20;2.00;;;29.50;73.30;;;;;;5055367;28;20452;-59
2022/09/13 12:49:29;;;;;;;1.80;1.70;;;29.40;72.20;;;;;;5074795;28;20839;-59
2022/09/13 12:52:16;;;;;;;1.80;1.70;;;29.40;71.10;;;;;;5074175;28;21101;-59
2022/09/13 12:55:16;;;;;;;2.10;1.90;;;29.60;70.50;;;;;;5074624;28;20432;-59
2022/09/13 12:57:54;;;;;;;2.33;1.97;;;29.70;69.00;;;;;;5074453;28;20490;-59
2022/09/13 13:00:24;;;;;;;1.87;1.73;;;29.70;67.40;;;;;;5074302;28;20428;-59
2022/09/13 13:02:59;;;;;;;2.03;1.73;;;30.00;68.70;;;;;;5073927;28;20958;-59
2022/09/13 13:05:29;;;;;;;3.10;2.03;;;30.20;66.60;;;;;;5074130;28;20428;-59
2022/09/13 13:08:01;;;;;;;4.77;2.00;;;30.30;66.80;;;;;;5074310;28;20433;-59
2022/09/13 13:10:33;;;;;;;3.00;1.93;;;30.30;66.20;;;;;;5074130;28;20465;-59
2022/09/13 13:13:16;;;;;;;2.00;1.77;;;30.10;66.10;;;;;;5074565;28;20464;-59